Time;durP1;ratioP1;P1;durP2;ratioP2;P2;SDS_P1;SDS_P2;PMS_P1;PMS_P2;Temp;Humidity;BMP_temperature;BMP_pressure;BME280_temperature;BME280_humidity;BME280_pressure;Samples;Min_cycle;Max_cycle;Signal;HPM_P1;HPM_P2
2023/04/18 00:00:23;;;;;;;19.07;12.63;;;8.00;99.90;;;11.09;53.64;98039.78;5057613;28;20076;-61
2023/04/18 00:02:52;;;;;;;18.33;12.33;;;7.90;99.90;;;11.13;53.99;98038.53;5063999;28;20041;-61
2023/04/18 00:05:21;;;;;;;24.00;16.03;;;8.00;99.90;;;11.14;53.74;98034.84;5064635;28;20037;-59
2023/04/18 00:07:48;;;;;;;20.33;13.63;;;7.90;99.90;;;11.10;53.76;98031.66;5063595;28;20045;-60
2023/04/18 00:10:16;;;;;;;17.60;13.17;;;7.90;99.90;;;11.13;53.68;98034.00;5062395;28;20041;-60
2023/04/18 00:12:43;;;;;;;19.13;12.30;;;7.90;99.90;;;11.17;53.89;98035.38;5063845;28;20055;-59
2023/04/18 00:15:11;;;;;;;19.10;13.33;;;8.00;99.90;;;11.21;53.77;98025.25;5065543;28;20051;-59
2023/04/18 00:17:39;;;;;;;18.20;12.07;;;8.10;99.90;;;11.27;54.08;98023.78;5064972;28;20048;-59
2023/04/18 00:20:10;;;;;;;19.57;12.87;;;8.10;99.90;;;11.29;53.99;98029.81;5062228;28;20044;-60
2023/04/18 00:22:45;;;;;;;20.03;11.90;;;8.20;99.90;;;11.31;54.00;98015.31;5061460;28;20056;-59
2023/04/18 00:25:13;;;;;;;16.27;11.83;;;8.20;99.90;;;11.36;53.93;98014.84;5065392;28;20047;-60
2023/04/18 00:27:41;;;;;;;17.43;11.73;;;8.20;99.90;;;11.39;54.19;98014.53;5064576;28;20036;-60
2023/04/18 00:30:09;;;;;;;16.47;12.27;;;8.30;99.90;;;11.43;54.14;98013.22;5062335;28;20033;-59
2023/04/18 00:32:37;;;;;;;18.03;11.97;;;8.30;99.90;;;11.43;54.21;98003.38;5062407;28;20389;-60
2023/04/18 00:35:05;;;;;;;14.60;11.17;;;8.30;99.90;;;11.44;53.85;98006.91;5065185;28;20040;-60
2023/04/18 00:37:33;;;;;;;17.27;12.37;;;8.30;99.90;;;11.44;54.11;98004.25;5047432;28;20053;-59
2023/04/18 00:40:01;;;;;;;15.60;10.37;;;8.40;99.90;;;11.47;53.95;98011.91;5052520;28;20041;-59
2023/04/18 00:42:28;;;;;;;19.27;12.27;;;8.40;99.90;;;11.47;54.03;98000.41;5063976;28;20049;-59
2023/04/18 00:44:56;;;;;;;16.87;12.00;;;8.40;99.60;;;11.50;53.75;98002.78;5062527;28;20055;-60
2023/04/18 00:47:24;;;;;;;17.97;11.77;;;8.40;99.60;;;11.53;53.91;98005.09;5063982;28;20500;-60
2023/04/18 00:49:53;;;;;;;17.70;11.43;;;8.40;99.90;;;11.55;54.13;98005.78;5061700;28;20052;-59
2023/04/18 00:52:20;;;;;;;17.93;12.57;;;8.40;99.80;;;11.58;54.11;98005.47;5036895;28;20049;-59
2023/04/18 00:54:48;;;;;;;14.40;9.80;;;8.40;99.90;;;11.59;53.80;98005.31;5057331;28;20056;-59
2023/04/18 00:57:16;;;;;;;15.70;11.80;;;8.40;99.90;;;11.60;53.90;98006.97;5063592;28;20048;-61
2023/04/18 00:59:45;;;;;;;18.50;11.47;;;8.40;99.90;;;11.62;53.88;98001.50;5046466;28;20048;-59
2023/04/18 01:02:13;;;;;;;14.87;11.03;;;8.50;99.90;;;11.63;54.22;98004.00;5059459;28;20045;-59
2023/04/18 01:04:42;;;;;;;19.27;11.83;;;8.50;99.90;;;11.62;54.12;97997.00;5060068;28;20426;-60
2023/04/18 01:07:11;;;;;;;16.90;11.40;;;8.50;99.90;;;11.62;53.74;97997.00;5047121;28;20045;-60
2023/04/18 01:09:39;;;;;;;14.57;10.83;;;8.50;99.90;;;11.64;53.71;97996.84;5062907;28;20434;-59
2023/04/18 01:12:06;;;;;;;15.07;11.30;;;8.50;99.90;;;11.66;53.88;97996.69;5063063;28;20049;-60
2023/04/18 01:14:34;;;;;;;18.73;10.87;;;8.50;99.90;;;11.68;53.93;97995.53;5062843;28;20063;-60
2023/04/18 01:17:03;;;;;;;14.50;10.67;;;8.50;99.90;;;11.69;53.65;97988.34;5061274;28;20033;-60
2023/04/18 01:19:30;;;;;;;16.83;11.60;;;8.50;99.90;;;11.70;53.93;97982.03;5061313;28;20048;-60
2023/04/18 01:21:58;;;;;;;13.90;10.50;;;8.50;99.90;;;11.70;53.95;97979.38;5062681;28;20060;-60
2023/04/18 01:24:28;;;;;;;16.10;11.00;;;8.50;99.90;;;11.69;53.46;97975.88;5062092;28;20052;-60
2023/04/18 01:26:57;;;;;;;14.77;10.23;;;8.50;99.90;;;11.69;54.00;97970.53;5062097;28;20092;-60
2023/04/18 01:29:25;;;;;;;14.03;10.13;;;8.50;99.90;;;11.70;53.56;97971.38;5068183;28;20044;-59
2023/04/18 01:31:53;;;;;;;16.70;10.80;;;8.50;99.90;;;11.69;53.78;97973.19;5061228;28;20045;-60
2023/04/18 01:34:21;;;;;;;14.20;10.33;;;8.50;99.90;;;11.68;53.50;97968.84;5064130;28;20055;-60
2023/04/18 01:36:48;;;;;;;16.83;11.27;;;8.40;99.90;;;11.69;53.20;97967.00;5061240;28;20059;-60
2023/04/18 01:39:17;;;;;;;15.70;10.53;;;8.40;99.90;;;11.68;53.63;97968.03;5060934;28;20048;-59
2023/04/18 01:41:45;;;;;;;14.10;9.80;;;8.40;99.80;;;11.66;53.44;97960.19;5041442;28;20061;-59
2023/04/18 01:44:12;;;;;;;13.13;10.07;;;8.40;99.90;;;11.68;53.50;97960.03;5062651;28;20498;-59
2023/04/18 01:46:40;;;;;;;15.57;10.93;;;8.40;99.90;;;11.67;53.51;97959.19;5062049;28;20421;-59
2023/04/18 01:49:08;;;;;;;14.00;10.23;;;8.40;99.60;;;11.68;53.51;97952.84;5058390;28;20441;-60
2023/04/18 01:51:37;;;;;;;14.53;11.03;;;8.40;99.90;;;11.66;53.52;97952.19;5066921;28;20456;-60
2023/04/18 01:54:05;;;;;;;17.40;10.73;;;8.40;99.90;;;11.66;53.55;97952.19;5051032;28;20049;-59
2023/04/18 01:56:33;;;;;;;15.43;10.67;;;8.40;99.90;;;11.67;53.35;97956.53;5060194;28;20056;-60
2023/04/18 01:59:02;;;;;;;13.03;9.27;;;8.40;99.80;;;11.64;53.79;97951.50;5060686;28;20079;-59
2023/04/18 02:01:29;;;;;;;16.17;9.90;;;8.40;99.90;;;11.61;53.38;97950.00;5063880;28;20033;-60
2023/04/18 02:03:58;;;;;;;17.20;10.17;;;8.40;99.90;;;11.61;53.53;97949.16;5058554;28;20056;-60
2023/04/18 02:06:26;;;;;;;14.90;9.73;;;8.40;99.80;;;11.61;53.92;97946.47;5058008;28;20050;-60
2023/04/18 02:08:53;;;;;;;14.73;10.13;;;8.40;99.90;;;11.63;53.59;97947.16;5060351;28;20053;-61
2023/04/18 02:11:24;;;;;;;14.87;10.63;;;8.40;99.80;;;11.62;53.70;97946.31;5063702;28;20040;-60
2023/04/18 02:13:52;;;;;;;13.87;9.70;;;8.40;99.20;;;11.60;53.43;97950.97;5060304;28;20044;-59
2023/04/18 02:16:19;;;;;;;14.67;9.50;;;8.50;99.40;;;11.58;53.58;97949.47;5058714;28;20144;-59
2023/04/18 02:18:51;;;;;;;13.90;10.17;;;8.50;98.70;;;11.56;53.62;97949.63;5058985;28;20534;-59
2023/04/18 02:21:18;;;;;;;15.30;10.60;;;8.50;98.20;;;11.58;53.80;97952.16;5061891;28;20277;-59
2023/04/18 02:23:48;;;;;;;15.47;11.40;;;8.40;98.20;;;11.56;53.38;97951.47;5060597;28;20067;-60
2023/04/18 02:26:16;;;;;;;13.37;8.73;;;8.50;98.70;;;11.53;53.63;97952.59;5059614;28;20418;-59
2023/04/18 02:28:43;;;;;;;14.97;9.77;;;8.50;98.50;;;11.50;53.84;97952.94;5058808;28;20049;-60
2023/04/18 02:31:13;;;;;;;13.47;9.50;;;8.50;98.20;;;11.48;54.04;97952.28;5061896;28;20502;-59
2023/04/18 02:33:42;;;;;;;13.33;9.80;;;8.50;97.80;;;11.48;53.94;97957.59;5063177;28;20060;-59
2023/04/18 02:36:11;;;;;;;13.57;9.13;;;8.50;97.70;;;11.51;53.88;97948.44;5051539;28;20071;-60
2023/04/18 02:38:39;;;;;;;16.07;10.20;;;8.50;99.00;;;11.52;53.94;97950.94;5058182;28;20056;-59
2023/04/18 02:41:07;;;;;;;15.87;9.87;;;8.40;98.10;;;11.52;53.58;97953.63;5063092;28;20044;-59
2023/04/18 02:43:35;;;;;;;13.83;10.10;;;8.40;97.90;;;11.53;53.54;97952.59;5061476;28;20072;-60
2023/04/18 02:46:03;;;;;;;15.63;9.77;;;8.50;97.90;;;11.56;53.62;97951.47;5058316;28;20075;-59
2023/04/18 02:48:30;;;;;;;16.13;9.70;;;8.50;98.00;;;11.53;53.58;97954.44;5058304;28;20533;-60
2023/04/18 02:51:05;;;;;;;15.50;10.50;;;8.40;97.00;;;11.55;53.57;97955.13;5050570;28;20052;-59
2023/04/18 02:53:35;;;;;;;14.33;10.17;;;8.40;97.20;;;11.50;53.67;97947.63;5061180;28;20052;-59
2023/04/18 02:56:04;;;;;;;15.37;10.97;;;8.40;97.30;;;11.46;53.40;97950.75;5058184;28;20502;-59
2023/04/18 02:58:50;;;;;;;17.77;11.03;;;8.30;96.90;;;11.43;53.71;97951.91;5059653;28;20418;-60
2023/04/18 03:01:38;;;;;;;14.13;10.93;;;8.30;97.10;;;11.45;53.30;97951.75;5061144;28;20063;-58
2023/04/18 03:04:11;;;;;;;17.83;11.40;;;8.30;97.10;;;11.40;53.21;97941.56;5057780;28;20048;-59
2023/04/18 03:06:44;;;;;;;15.13;9.90;;;8.20;97.10;;;11.32;53.43;97946.84;5057475;28;20535;-60
2023/04/18 03:09:12;;;;;;;15.20;11.20;;;8.10;97.50;;;11.27;53.50;97950.00;5061132;28;20045;-59
2023/04/18 03:11:46;;;;;;;14.17;10.57;;;8.00;98.40;;;11.27;53.25;97950.00;5060751;28;20044;-60
2023/04/18 03:14:15;;;;;;;15.87;11.30;;;8.10;98.40;;;11.29;53.45;97952.50;5040684;28;20045;-60
2023/04/18 03:16:49;;;;;;;16.08;10.10;;;8.10;98.30;;;11.29;53.73;97949.84;5062814;28;20060;-60
2023/04/18 03:19:24;;;;;;;15.40;10.93;;;8.20;97.50;;;11.27;53.27;97954.50;5060064;28;20044;-59
2023/04/18 03:21:53;;;;;;;14.87;10.47;;;8.20;96.70;;;11.23;53.01;97949.47;5059173;28;20056;-61
2023/04/18 03:24:22;;;;;;;13.37;10.73;;;8.10;96.30;;;11.17;53.17;97959.94;5057112;28;20391;-60
2023/04/18 03:26:52;;;;;;;17.57;11.17;;;8.10;95.70;;;11.12;53.18;97959.56;5056394;28;20424;-60
2023/04/18 03:29:24;;;;;;;19.17;11.27;;;8.10;94.60;;;10.92;53.44;97953.59;5060942;28;20045;-59
2023/04/18 03:31:51;;;;;;;19.10;11.83;;;7.80;95.20;;;10.83;53.48;97950.88;5043359;28;20051;-59
2023/04/18 03:34:19;;;;;;;18.57;10.93;;;7.70;95.00;;;10.85;53.52;97958.69;5057130;28;20532;-59
2023/04/18 03:36:46;;;;;;;15.10;11.10;;;7.70;96.40;;;10.76;53.17;97954.31;5062360;28;20486;-59
2023/04/18 03:39:16;;;;;;;15.43;10.97;;;7.60;97.00;;;10.75;53.22;97958.78;5060419;28;20055;-60
2023/04/18 03:41:44;;;;;;;22.37;12.17;;;7.60;97.10;;;10.73;53.51;97960.78;5060503;28;20416;-59
2023/04/18 03:44:12;;;;;;;17.90;12.10;;;7.60;96.80;;;10.78;53.59;97955.84;5036673;28;20045;-59
2023/04/18 03:46:41;;;;;;;18.57;12.07;;;7.60;96.40;;;10.76;53.20;97951.63;5060601;28;20045;-59
2023/04/18 03:49:10;;;;;;;20.27;14.07;;;7.60;96.50;;;10.73;53.13;97950.13;5057682;28;20048;-60
2023/04/18 03:51:46;;;;;;;17.60;12.47;;;7.60;95.10;;;10.72;53.16;97951.13;5057473;28;20045;-60
2023/04/18 03:54:15;;;;;;;16.63;11.97;;;7.60;96.70;;;10.72;53.23;97950.28;5047118;28;20395;-59
2023/04/18 03:56:43;;;;;;;20.77;12.20;;;7.60;96.00;;;10.70;53.46;97954.91;5057105;28;20048;-59
2023/04/18 03:59:11;;;;;;;17.23;10.37;;;7.50;96.10;;;10.72;53.39;97944.94;5060160;28;20048;-59
2023/04/18 04:01:42;;;;;;;17.23;11.90;;;7.60;95.90;;;10.71;53.20;97941.47;5060951;28;20107;-59
2023/04/18 04:04:14;;;;;;;18.13;12.37;;;7.70;95.30;;;10.65;53.12;97958.06;5056491;28;20449;-59
2023/04/18 04:06:42;;;;;;;16.60;12.37;;;7.60;94.90;;;10.62;53.12;97956.56;5057167;28;20593;-59
2023/04/18 04:09:10;;;;;;;14.27;10.40;;;7.60;94.30;;;10.59;53.41;97956.03;5060115;28;20523;-59
2023/04/18 04:11:38;;;;;;;16.83;11.53;;;7.50;95.00;;;10.61;53.11;97965.50;5060608;28;20071;-59
2023/04/18 04:14:08;;;;;;;20.13;12.17;;;7.60;95.10;;;10.60;52.98;97955.88;5041006;28;20466;-59
2023/04/18 04:16:41;;;;;;;14.97;11.27;;;7.50;95.00;;;10.62;53.52;97961.00;5056989;28;20049;-59
2023/04/18 04:19:11;;;;;;;18.40;11.40;;;7.60;94.60;;;10.65;53.38;97968.72;5065279;28;20044;-60
2023/04/18 04:21:45;;;;;;;15.10;10.50;;;7.60;94.00;;;10.67;53.25;97965.91;5057173;28;20422;-60
2023/04/18 04:24:17;;;;;;;16.63;11.20;;;7.70;93.60;;;10.69;53.23;97970.06;5049109;28;20107;-60
2023/04/18 04:26:47;;;;;;;15.20;10.37;;;7.60;93.70;;;10.71;52.99;97973.41;5056446;28;20044;-60
2023/04/18 04:29:20;;;;;;;17.07;10.33;;;7.60;93.50;;;10.66;52.86;97967.69;5052972;28;20045;-60
2023/04/18 04:31:48;;;;;;;15.77;11.17;;;7.60;93.80;;;10.63;52.58;97970.69;5062110;28;20045;-60
2023/04/18 04:34:26;;;;;;;18.50;12.53;;;7.60;93.70;;;10.66;52.79;97974.88;5044882;28;20111;-60
2023/04/18 04:36:55;;;;;;;19.50;12.73;;;7.60;93.50;;;10.52;52.83;97968.25;5061595;28;20052;-60
2023/04/18 04:39:24;;;;;;;19.57;12.43;;;7.50;92.70;;;10.53;52.74;97969.94;5063362;28;20055;-60
2023/04/18 04:42:15;;;;;;;14.90;10.53;;;7.40;93.40;;;10.58;52.68;97967.63;5052179;28;20053;-60
2023/04/18 04:44:53;;;;;;;19.80;13.27;;;7.50;93.40;;;10.52;52.52;97961.09;5060308;28;20045;-60
2023/04/18 04:47:21;;;;;;;20.23;13.67;;;7.40;92.30;;;10.54;52.79;97969.78;5063376;28;20044;-60
2023/04/18 04:49:49;;;;;;;16.60;12.10;;;7.40;93.60;;;10.56;52.97;97966.97;5063774;28;20052;-60
2023/04/18 04:52:17;;;;;;;16.37;12.57;;;7.40;93.60;;;10.58;52.80;97972.97;5053865;28;20041;-60
2023/04/18 04:54:45;;;;;;;15.00;11.77;;;7.40;93.70;;;10.59;52.94;97964.84;5060124;28;20049;-60
2023/04/18 04:57:15;;;;;;;18.37;13.73;;;7.40;93.50;;;10.51;52.42;97966.59;5059487;28;20498;-60
2023/04/18 04:59:43;;;;;;;15.00;11.47;;;7.40;92.40;;;10.52;52.84;97970.91;5059330;28;20064;-60
2023/04/18 05:02:11;;;;;;;16.57;11.40;;;7.40;92.10;;;10.42;52.68;97977.16;5062413;28;20524;-60
2023/04/18 05:04:40;;;;;;;13.83;11.17;;;7.30;93.70;;;10.43;52.90;97970.84;5062892;28;20537;-60
2023/04/18 05:07:08;;;;;;;18.03;11.63;;;7.40;92.80;;;10.42;53.07;97971.81;5062506;28;20051;-60
2023/04/18 05:09:35;;;;;;;16.10;12.27;;;7.40;93.20;;;10.48;53.16;97977.53;5061311;28;20052;-60
2023/04/18 05:12:03;;;;;;;16.90;10.57;;;7.50;93.10;;;10.52;52.83;97974.41;5061778;28;20037;-60
2023/04/18 05:14:31;;;;;;;17.30;12.33;;;7.60;92.10;;;10.57;52.66;97979.28;5064433;28;20056;-60
2023/04/18 05:16:58;;;;;;;16.10;12.33;;;7.60;91.90;;;10.56;52.71;97981.09;5063738;28;20037;-60
2023/04/18 05:19:26;;;;;;;19.30;12.10;;;7.60;91.50;;;10.58;52.54;97984.44;5061449;28;20490;-61
2023/04/18 05:21:54;;;;;;;17.57;11.93;;;7.60;91.60;;;10.57;52.77;97987.28;5061361;28;20422;-61
2023/04/18 05:24:22;;;;;;;15.53;11.90;;;7.50;92.10;;;10.52;52.95;97989.56;5064565;28;20111;-61
2023/04/18 05:26:49;;;;;;;15.63;11.93;;;7.60;91.70;;;10.56;52.67;97999.72;5064479;28;20045;-61
2023/04/18 05:29:17;;;;;;;16.10;11.57;;;7.50;91.70;;;10.64;52.77;97996.31;5061098;28;20430;-61
2023/04/18 05:31:44;;;;;;;15.23;11.50;;;7.60;92.30;;;10.66;52.50;97986.34;5059880;28;20052;-61
2023/04/18 05:34:12;;;;;;;18.63;12.03;;;7.60;91.30;;;10.69;52.50;97993.22;5063592;28;20060;-61
2023/04/18 05:36:40;;;;;;;17.90;10.50;;;7.70;91.40;;;10.68;52.99;97987.03;5064053;28;20202;-61
2023/04/18 05:39:08;;;;;;;16.27;11.93;;;7.70;91.80;;;10.72;52.70;97990.22;5062824;28;20048;-61
2023/04/18 05:41:35;;;;;;;17.13;11.47;;;7.70;91.70;;;10.74;52.47;97991.75;5064286;28;20072;-61
2023/04/18 05:44:03;;;;;;;15.67;10.77;;;7.70;91.50;;;10.79;52.65;97991.28;5062642;28;20044;-61
2023/04/18 05:46:32;;;;;;;15.77;11.07;;;7.70;91.40;;;10.82;52.73;97980.34;5060340;28;20037;-60
2023/04/18 05:49:01;;;;;;;16.27;11.70;;;7.70;91.80;;;10.83;52.63;97984.66;5061802;28;20048;-60
2023/04/18 05:51:28;;;;;;;17.20;11.70;;;7.80;91.60;;;10.86;52.49;97981.69;5064384;28;20040;-59
2023/04/18 05:53:56;;;;;;;17.57;11.23;;;7.80;91.10;;;10.88;52.29;97993.03;5062296;28;20040;-59
2023/04/18 05:56:23;;;;;;;15.80;11.93;;;7.80;90.30;;;10.95;52.40;97986.09;5060339;28;20060;-60
2023/04/18 05:58:51;;;;;;;15.53;10.60;;;8.00;91.30;;;11.04;52.67;97992.31;5059720;28;20057;-60
2023/04/18 06:01:18;;;;;;;15.57;11.67;;;8.00;90.60;;;11.10;52.59;97997.00;5062091;28;20052;-60
2023/04/18 06:03:46;;;;;;;14.73;11.37;;;8.10;90.30;;;11.15;52.30;97997.38;5063791;28;20052;-59
2023/04/18 06:06:14;;;;;;;17.00;11.87;;;8.10;90.70;;;11.23;52.28;97993.94;5060671;28;20425;-60
2023/04/18 06:08:41;;;;;;;17.20;11.67;;;8.20;90.70;;;11.27;52.50;97995.31;5060474;28;20041;-60
2023/04/18 06:11:09;;;;;;;14.17;10.40;;;8.20;90.20;;;11.25;52.51;98001.78;5062075;28;20051;-59
2023/04/18 06:13:36;;;;;;;16.47;10.50;;;8.30;89.50;;;11.24;52.71;97998.25;5063655;28;20071;-59
2023/04/18 06:16:04;;;;;;;16.13;11.00;;;8.40;88.90;;;11.26;52.44;98006.94;5060733;28;20048;-60
2023/04/18 06:18:32;;;;;;;17.03;12.47;;;8.40;88.70;;;11.31;52.23;98011.81;5059145;28;20437;-59
2023/04/18 06:21:00;;;;;;;16.53;11.07;;;8.50;88.70;;;11.37;52.36;98014.69;5060736;28;20048;-60
2023/04/18 06:23:27;;;;;;;15.87;11.03;;;8.50;89.70;;;11.36;51.99;98010.34;5063160;28;20063;-60
2023/04/18 06:25:56;;;;;;;16.77;11.17;;;8.50;88.50;;;11.38;52.43;98011.03;5062749;28;20051;-59
2023/04/18 06:28:25;;;;;;;18.07;10.97;;;8.50;88.20;;;11.44;52.00;98014.91;5060174;28;20033;-60
2023/04/18 06:30:52;;;;;;;17.00;11.23;;;8.60;88.00;;;11.43;52.37;98005.22;5059743;28;20041;-60
2023/04/18 06:33:20;;;;;;;21.43;12.80;;;8.60;87.90;;;11.47;52.31;98003.06;5045185;28;20041;-60
2023/04/18 06:35:47;;;;;;;16.60;11.23;;;8.60;87.80;;;11.51;52.38;98007.94;5056151;28;20049;-59
2023/04/18 06:38:15;;;;;;;15.60;10.80;;;8.60;88.10;;;11.60;52.04;98006.97;5062263;28;20049;-60
2023/04/18 06:40:42;;;;;;;15.33;10.93;;;8.70;88.00;;;11.60;52.25;98008.81;5063209;28;20044;-59
2023/04/18 06:43:10;;;;;;;15.40;10.60;;;8.70;86.70;;;11.62;51.74;98015.66;5061164;28;20052;-59
2023/04/18 06:45:39;;;;;;;14.10;10.93;;;8.70;87.10;;;11.54;51.91;98012.94;5057643;28;20045;-60
2023/04/18 06:48:09;;;;;;;15.80;10.70;;;8.70;87.20;;;11.57;52.45;98025.13;5060889;28;20041;-59
2023/04/18 06:50:36;;;;;;;15.63;10.87;;;8.70;87.20;;;11.61;52.51;98011.34;5063292;28;20052;-59
2023/04/18 06:53:04;;;;;;;16.27;11.07;;;8.80;87.20;;;11.67;52.21;98017.88;5060606;28;20048;-59
2023/04/18 06:55:32;;;;;;;16.67;10.97;;;8.80;86.80;;;11.67;51.85;98022.34;5058554;28;20494;-59
2023/04/18 06:57:59;;;;;;;19.63;11.67;;;8.80;86.70;;;11.65;51.78;98014.53;5062472;28;20139;-59
2023/04/18 07:00:27;;;;;;;14.40;10.13;;;8.80;86.10;;;11.63;51.95;98017.34;5059286;28;20072;-59
2023/04/18 07:02:54;;;;;;;16.63;11.17;;;8.80;86.30;;;11.58;52.14;98027.63;5059304;28;20053;-58
2023/04/18 07:05:22;;;;;;;15.50;10.10;;;8.80;86.10;;;11.50;52.19;98021.44;5058439;28;20525;-60
2023/04/18 07:07:50;;;;;;;15.50;10.93;;;8.70;86.50;;;11.51;52.14;98018.59;5059276;28;20045;-59
2023/04/18 07:10:18;;;;;;;15.00;11.17;;;8.80;86.90;;;11.56;52.20;98016.28;5060969;28;20040;-59
2023/04/18 07:12:46;;;;;;;16.37;9.83;;;8.80;86.50;;;11.51;52.44;98021.25;5062584;28;20044;-59
2023/04/18 07:15:14;;;;;;;16.57;11.17;;;8.80;86.00;;;11.48;52.67;98021.59;5059742;28;20051;-59
2023/04/18 07:17:41;;;;;;;13.33;9.37;;;8.80;86.50;;;11.51;52.30;98023.09;5059305;28;20060;-59
2023/04/18 07:20:10;;;;;;;15.00;10.30;;;8.80;86.20;;;11.51;52.29;98028.44;5060648;28;20045;-59
2023/04/18 07:22:40;;;;;;;14.30;10.17;;;8.80;86.10;;;11.55;52.40;98027.94;5062883;28;20040;-59
2023/04/18 07:25:08;;;;;;;13.87;9.37;;;8.90;86.40;;;11.60;52.65;98030.97;5060575;28;20055;-60
2023/04/18 07:27:36;;;;;;;12.27;8.70;;;9.00;86.10;;;11.72;52.36;98028.03;5058942;28;20049;-60
2023/04/18 07:30:05;;;;;;;16.03;10.37;;;9.00;86.00;;;11.79;52.32;98026.41;5059696;28;20049;-60
2023/04/18 07:32:32;;;;;;;19.03;10.43;;;8.90;85.00;;;11.71;52.19;98021.03;5062536;28;20040;-60
2023/04/18 07:35:00;;;;;;;14.30;10.33;;;8.90;86.30;;;11.73;51.93;98033.22;5061763;28;20048;-60
2023/04/18 07:37:27;;;;;;;14.73;10.60;;;8.90;85.60;;;11.69;51.99;98033.69;5058748;28;20044;-59
2023/04/18 07:39:55;;;;;;;15.17;10.17;;;8.80;85.90;;;11.61;52.34;98038.00;5059046;28;20060;-60
2023/04/18 07:42:22;;;;;;;18.53;10.63;;;8.70;86.80;;;11.67;52.25;98028.53;5062064;28;20040;-59
2023/04/18 07:44:55;;;;;;;15.93;11.30;;;8.80;87.10;;;11.66;52.24;98034.84;5061931;28;20044;-60
2023/04/18 07:47:22;;;;;;;14.90;10.70;;;8.80;87.00;;;11.67;52.60;98035.69;5057664;28;20041;-60
2023/04/18 07:49:50;;;;;;;15.80;11.17;;;8.80;87.20;;;11.65;52.21;98040.34;5058509;28;20045;-60
2023/04/18 07:52:18;;;;;;;14.40;10.63;;;8.70;87.50;;;11.69;52.41;98039.03;5060693;28;20418;-60
2023/04/18 07:54:45;;;;;;;19.03;9.93;;;8.80;87.80;;;11.71;52.71;98037.03;5060588;28;20051;-60
2023/04/18 07:57:13;;;;;;;15.93;10.53;;;8.90;87.50;;;11.80;52.48;98042.25;5060403;28;20059;-59
2023/04/18 07:59:40;;;;;;;14.93;9.57;;;9.00;87.30;;;11.94;52.31;98042.66;5058069;28;20053;-59
2023/04/18 08:02:08;;;;;;;20.00;12.00;;;9.20;86.80;;;11.99;52.66;98043.03;5059542;28;20488;-60
2023/04/18 08:04:35;;;;;;;13.87;9.80;;;9.30;86.60;;;12.09;52.54;98041.06;5065706;28;20421;-59
2023/04/18 08:07:03;;;;;;;15.90;9.90;;;9.40;86.20;;;12.12;51.97;98039.94;5065601;28;20048;-60
2023/04/18 08:09:31;;;;;;;15.87;10.17;;;9.50;85.60;;;12.11;52.22;98036.41;5062776;28;20040;-60
2023/04/18 08:11:58;;;;;;;15.13;10.70;;;9.50;85.90;;;12.24;52.37;98038.63;5060585;28;20115;-60
2023/04/18 08:14:26;;;;;;;13.93;10.03;;;9.60;85.40;;;12.30;52.35;98043.31;5065646;28;20047;-60
2023/04/18 08:16:53;;;;;;;14.93;10.70;;;9.70;85.20;;;12.41;52.32;98044.84;5066088;28;20528;-59
2023/04/18 08:19:22;;;;;;;14.63;10.17;;;9.80;85.30;;;12.50;52.36;98049.19;5063159;28;20048;-60
2023/04/18 08:21:51;;;;;;;15.90;11.17;;;9.90;84.60;;;12.60;52.24;98049.06;5062544;28;20041;-60
2023/04/18 08:24:18;;;;;;;17.03;10.60;;;10.00;84.60;;;12.76;51.92;98049.09;5064500;28;20049;-60
2023/04/18 08:26:46;;;;;;;15.30;11.17;;;10.10;84.60;;;12.82;51.43;98049.44;5065588;28;20044;-61
2023/04/18 08:29:13;;;;;;;17.93;11.83;;;10.10;84.10;;;12.90;51.60;98042.25;5064543;28;20044;-61
2023/04/18 08:31:41;;;;;;;14.20;10.33;;;10.20;84.00;;;13.05;51.88;98034.41;5061045;28;20045;-61
2023/04/18 08:34:09;;;;;;;13.93;9.47;;;10.40;84.40;;;13.23;51.73;98039.56;5061777;28;20049;-61
2023/04/18 08:36:36;;;;;;;17.73;11.70;;;10.60;83.90;;;13.33;51.36;98034.91;5065450;28;20052;-61
2023/04/18 08:39:05;;;;;;;15.20;10.40;;;10.70;82.70;;;13.38;51.10;98037.91;5065153;28;20398;-61
2023/04/18 08:41:38;;;;;;;16.33;9.63;;;10.70;83.00;;;13.45;51.48;98043.41;5062136;28;20045;-61
2023/04/18 08:44:06;;;;;;;15.65;11.93;;;10.80;82.50;;;13.53;51.06;98038.06;5062279;28;20063;-61
2023/04/18 08:46:37;;;;;;;15.90;11.00;;;10.80;81.80;;;13.58;50.83;98040.22;5065418;28;20048;-61
2023/04/18 08:49:05;;;;;;;16.20;10.67;;;10.80;81.00;;;13.59;51.05;98040.06;5065134;28;20053;-61
2023/04/18 08:51:33;;;;;;;14.80;11.27;;;10.80;81.80;;;13.72;51.21;98041.34;5061964;28;20053;-61
2023/04/18 08:54:03;;;;;;;14.93;11.02;;;11.00;82.50;;;13.84;50.76;98047.16;5061610;28;20395;-61
2023/04/18 08:56:31;;;;;;;14.50;10.30;;;11.10;81.60;;;13.91;50.89;98053.50;5052413;28;20036;-61
2023/04/18 08:58:59;;;;;;;16.47;11.33;;;11.20;81.60;;;14.01;51.03;98064.03;5060786;28;20052;-61
2023/04/18 09:01:56;;;;;;;16.07;10.70;;;11.30;81.90;;;14.07;50.94;98066.81;5063832;28;20041;-61
2023/04/18 09:04:44;;;;;;;17.95;10.88;;;11.40;80.20;;;14.18;50.63;98062.94;5061947;28;20097;-61
2023/04/18 09:07:15;;;;;;;18.30;11.60;;;11.40;80.40;;;14.25;50.31;98065.75;5061207;28;20052;-61
2023/04/18 09:09:46;;;;;;;15.55;11.02;;;11.40;80.40;;;14.24;50.12;98067.59;5064981;28;20502;-61
2023/04/18 09:12:24;;;;;;;17.70;11.18;;;11.50;79.80;;;14.14;50.17;98070.50;5063020;28;20054;-61
2023/04/18 09:14:56;;;;;;;17.33;11.77;;;11.40;80.50;;;14.16;50.27;98064.97;5059850;28;20044;-61
2023/04/18 09:17:36;;;;;;;15.77;11.32;;;11.40;80.10;;;14.21;50.31;98067.13;5064065;28;20052;-61
2023/04/18 09:20:08;;;;;;;15.93;11.20;;;11.40;80.10;;;14.18;49.90;98060.28;5064960;28;20051;-61
2023/04/18 09:22:50;;;;;;;16.75;10.32;;;11.30;79.60;;;14.11;50.20;98054.78;5060084;28;20406;-61
2023/04/18 09:25:28;;;;;;;13.88;10.68;;;11.30;79.50;;;14.12;49.90;98064.47;5062585;28;20056;-61
2023/04/18 09:27:59;;;;;;;17.85;11.05;;;11.40;79.20;;;14.10;50.07;98057.63;5064846;28;20041;-61
2023/04/18 09:30:39;;;;;;;14.30;10.05;;;11.50;78.60;;;14.19;50.19;98064.63;5061489;28;20048;-61
2023/04/18 09:33:09;;;;;;;15.68;11.30;;;11.60;78.60;;;14.30;50.01;98061.53;5060844;28;20056;-61
2023/04/18 09:35:37;;;;;;;14.98;11.73;;;11.70;78.70;;;14.37;50.02;98067.06;5064023;28;20055;-61
2023/04/18 09:38:06;;;;;;;15.90;10.77;;;11.80;78.20;;;14.43;49.45;98065.53;5064361;28;20402;-61
2023/04/18 09:40:34;;;;;;;14.48;10.27;;;11.80;77.10;;;14.46;49.72;98063.34;5053328;28;20498;-61
2023/04/18 09:43:19;;;;;;;14.80;10.43;;;11.90;77.50;;;14.53;49.80;98064.28;5059387;28;20049;-61
2023/04/18 09:45:49;;;;;;;14.52;11.15;;;11.90;76.90;;;14.53;49.22;98071.50;5053446;28;20085;-61
2023/04/18 09:48:17;;;;;;;16.27;10.75;;;11.90;76.40;;;14.59;49.18;98073.50;5062254;28;20048;-61
2023/04/18 09:50:47;;;;;;;16.45;12.35;;;11.80;75.30;;;14.46;48.87;98071.38;5064208;28;20049;-60
2023/04/18 09:53:19;;;;;;;13.40;10.70;;;11.70;77.30;;;14.43;49.33;98062.84;5062817;28;20537;-60
2023/04/18 09:55:52;;;;;;;16.27;10.93;;;11.70;77.70;;;14.48;49.58;98065.81;5056658;28;20045;-61
2023/04/18 09:58:29;;;;;;;14.68;10.65;;;11.80;77.60;;;14.56;49.41;98069.31;5062875;28;20395;-61
2023/04/18 10:00:57;;;;;;;14.85;10.23;;;11.90;77.30;;;14.59;49.38;98057.41;5062872;28;20049;-60
2023/04/18 10:03:37;;;;;;;13.80;9.38;;;12.00;76.80;;;14.63;49.36;98068.63;5060227;28;20347;-60
2023/04/18 10:06:05;;;;;;;13.75;9.60;;;12.00;76.50;;;14.67;49.26;98064.56;5060326;28;20056;-61
2023/04/18 10:08:33;;;;;;;17.63;12.35;;;12.00;76.40;;;14.67;49.31;98057.34;5062420;28;20057;-61
2023/04/18 10:11:01;;;;;;;16.08;11.82;;;12.00;76.30;;;14.72;49.20;98062.19;5061394;28;20116;-61
2023/04/18 10:13:29;;;;;;;13.60;9.95;;;12.10;76.60;;;14.79;49.50;98059.63;5062836;28;20052;-61
2023/04/18 10:15:57;;;;;;;16.73;11.32;;;12.20;76.80;;;14.83;49.51;98055.56;5062132;28;20047;-61
2023/04/18 10:18:25;;;;;;;14.43;11.68;;;12.30;76.90;;;14.94;49.58;98052.50;5059989;28;20408;-61
2023/04/18 10:21:04;;;;;;;15.40;10.88;;;12.40;77.00;;;15.05;49.61;98053.94;5060222;28;20048;-61